sensor_id;sensor_type;location;lat;lon;timestamp;pressure;altitude;pressure_sealevel;temperature;humidity
69187;BME280;56301;56.864;60.554;2023-05-09T00:01:32;99620.88;;;23.12;38.97
69187;BME280;56301;56.864;60.554;2023-05-09T00:03:54;99622.59;;;23.13;39.09
69187;BME280;56301;56.864;60.554;2023-05-09T00:06:17;99628.97;;;23.12;38.97
69187;BME280;56301;56.864;60.554;2023-05-09T00:08:39;99637.06;;;23.12;38.83
69187;BME280;56301;56.864;60.554;2023-05-09T00:11:02;99641.50;;;23.13;39.09
69187;BME280;56301;56.864;60.554;2023-05-09T00:13:24;99632.38;;;23.14;38.69
69187;BME280;56301;56.864;60.554;2023-05-09T00:15:47;99640.47;;;23.14;39.22
69187;BME280;56301;56.864;60.554;2023-05-09T00:18:09;99638.78;;;23.13;38.90
69187;BME280;56301;56.864;60.554;2023-05-09T00:20:31;99648.72;;;23.13;38.54
69187;BME280;56301;56.864;60.554;2023-05-09T00:22:54;99642.47;;;23.12;38.89
69187;BME280;56301;56.864;60.554;2023-05-09T00:25:16;99643.47;;;23.11;39.01
69187;BME280;56301;56.864;60.554;2023-05-09T00:27:39;99644.50;;;23.10;38.65
69187;BME280;56301;56.864;60.554;2023-05-09T00:30:02;99641.06;;;23.08;38.21
69187;BME280;56301;56.864;60.554;2023-05-09T00:32:25;99651.88;;;23.08;38.85
69187;BME280;56301;56.864;60.554;2023-05-09T00:34:47;99642.22;;;23.05;38.66
69187;BME280;56301;56.864;60.554;2023-05-09T00:37:10;99657.56;;;23.05;38.65
69187;BME280;56301;56.864;60.554;2023-05-09T00:39:32;99656.72;;;23.04;38.80
69187;BME280;56301;56.864;60.554;2023-05-09T00:41:55;99651.50;;;23.03;38.87
69187;BME280;56301;56.864;60.554;2023-05-09T00:44:17;99658.75;;;23.02;38.53
69187;BME280;56301;56.864;60.554;2023-05-09T00:46:41;99661.56;;;23.01;38.62
69187;BME280;56301;56.864;60.554;2023-05-09T00:49:03;99657.03;;;23.01;39.04
69187;BME280;56301;56.864;60.554;2023-05-09T00:51:26;99659.59;;;23.03;38.25
69187;BME280;56301;56.864;60.554;2023-05-09T00:53:49;99660.44;;;23.03;39.08
69187;BME280;56301;56.864;60.554;2023-05-09T00:56:12;99661.44;;;23.02;38.56
69187;BME280;56301;56.864;60.554;2023-05-09T00:58:35;99665.97;;;23.02;38.75
69187;BME280;56301;56.864;60.554;2023-05-09T01:00:59;99666.97;;;23.01;38.76
69187;BME280;56301;56.864;60.554;2023-05-09T01:03:21;99665.28;;;23.00;38.63
69187;BME280;56301;56.864;60.554;2023-05-09T01:05:54;99671.53;;;23.00;38.48
69187;BME280;56301;56.864;60.554;2023-05-09T01:08:32;99662.72;;;22.98;38.69
69187;BME280;56301;56.864;60.554;2023-05-09T01:10:57;99665.56;;;22.97;37.89
69187;BME280;56301;56.864;60.554;2023-05-09T01:13:32;99667.28;;;22.98;38.52
69187;BME280;56301;56.864;60.554;2023-05-09T01:16:22;99668.28;;;22.97;38.67
69187;BME280;56301;56.864;60.554;2023-05-09T01:18:46;99663.88;;;22.96;38.43
69187;BME280;56301;56.864;60.554;2023-05-09T01:21:30;99668.44;;;22.95;38.05
69187;BME280;56301;56.864;60.554;2023-05-09T01:27:05;99675.66;;;22.95;38.12
69187;BME280;56301;56.864;60.554;2023-05-09T01:29:35;99675.81;;;22.93;37.93
69187;BME280;56301;56.864;60.554;2023-05-09T01:31:58;99677.69;;;22.93;38.61
69187;BME280;56301;56.864;60.554;2023-05-09T01:34:24;99685.78;;;22.93;38.36
69187;BME280;56301;56.864;60.554;2023-05-09T01:36:47;99689.47;;;22.92;38.65
69187;BME280;56301;56.864;60.554;2023-05-09T01:39:13;99693.88;;;22.93;37.88
69187;BME280;56301;56.864;60.554;2023-05-09T01:41:38;99690.31;;;22.92;38.69
69187;BME280;56301;56.864;60.554;2023-05-09T01:44:01;99701.13;;;22.92;37.93
69187;BME280;56301;56.864;60.554;2023-05-09T01:46:24;99699.28;;;22.93;38.74
69187;BME280;56301;56.864;60.554;2023-05-09T01:48:47;99697.56;;;22.92;38.65
69187;BME280;56301;56.864;60.554;2023-05-09T01:51:11;99700.13;;;22.93;37.71
69187;BME280;56301;56.864;60.554;2023-05-09T01:53:35;99706.53;;;22.92;38.59
69187;BME280;56301;56.864;60.554;2023-05-09T01:55:58;99713.78;;;22.92;38.50
69187;BME280;56301;56.864;60.554;2023-05-09T01:58:21;99710.16;;;22.91;37.85
69187;BME280;56301;56.864;60.554;2023-05-09T02:00:44;99714.72;;;22.91;37.86
69187;BME280;56301;56.864;60.554;2023-05-09T02:03:09;99715.72;;;22.90;38.36
69187;BME280;56301;56.864;60.554;2023-05-09T02:05:33;99724.56;;;22.92;38.36
69187;BME280;56301;56.864;60.554;2023-05-09T02:07:57;99727.25;;;22.92;38.26
69187;BME280;56301;56.864;60.554;2023-05-09T02:10:19;99729.97;;;22.92;37.78
69187;BME280;56301;56.864;60.554;2023-05-09T02:12:43;99725.50;;;22.91;37.90
69187;BME280;56301;56.864;60.554;2023-05-09T02:15:06;99724.66;;;22.90;38.22
69187;BME280;56301;56.864;60.554;2023-05-09T02:17:28;99729.06;;;22.91;38.27
69187;BME280;56301;56.864;60.554;2023-05-09T02:19:51;99726.34;;;22.91;38.54
69187;BME280;56301;56.864;60.554;2023-05-09T02:22:13;99732.75;;;22.90;38.51
69187;BME280;56301;56.864;60.554;2023-05-09T02:24:36;99731.75;;;22.91;38.47
69187;BME280;56301;56.864;60.554;2023-05-09T02:26:59;99724.66;;;22.90;38.20
69187;BME280;56301;56.864;60.554;2023-05-09T02:29:22;99729.22;;;22.90;38.77
69187;BME280;56301;56.864;60.554;2023-05-09T02:31:46;99728.19;;;22.91;38.05
69187;BME280;56301;56.864;60.554;2023-05-09T02:34:09;99730.91;;;22.91;38.35
69187;BME280;56301;56.864;60.554;2023-05-09T02:36:33;99735.47;;;22.90;38.55
69187;BME280;56301;56.864;60.554;2023-05-09T02:38:56;99735.47;;;22.90;37.80
69187;BME280;56301;56.864;60.554;2023-05-09T02:41:18;99732.06;;;22.88;38.20
69187;BME280;56301;56.864;60.554;2023-05-09T02:43:43;99730.91;;;22.91;37.86
69187;BME280;56301;56.864;60.554;2023-05-09T02:46:05;99730.91;;;22.91;38.32
69187;BME280;56301;56.864;60.554;2023-05-09T02:48:29;99733.59;;;22.91;38.60
69187;BME280;56301;56.864;60.554;2023-05-09T02:50:51;99738.06;;;22.92;38.41
69187;BME280;56301;56.864;60.554;2023-05-09T02:53:14;99734.34;;;22.93;37.90
69187;BME280;56301;56.864;60.554;2023-05-09T02:55:37;99739.59;;;22.94;38.28
69187;BME280;56301;56.864;60.554;2023-05-09T02:57:59;99738.75;;;22.94;37.50
69187;BME280;56301;56.864;60.554;2023-05-09T03:00:26;99741.44;;;22.94;38.13
69187;BME280;56301;56.864;60.554;2023-05-09T03:02:49;99729.81;;;22.93;37.78
69187;BME280;56301;56.864;60.554;2023-05-09T03:05:12;99737.91;;;22.93;38.30
69187;BME280;56301;56.864;60.554;2023-05-09T03:07:34;99747.84;;;22.93;38.29
69187;BME280;56301;56.864;60.554;2023-05-09T03:09:57;99738.91;;;22.92;38.30
69187;BME280;56301;56.864;60.554;2023-05-09T03:12:20;99742.53;;;22.91;38.36
69187;BME280;56301;56.864;60.554;2023-05-09T03:14:47;99744.41;;;22.91;38.19
69187;BME280;56301;56.864;60.554;2023-05-09T03:17:10;99746.16;;;22.92;37.81
69187;BME280;56301;56.864;60.554;2023-05-09T03:19:32;99754.25;;;22.92;37.88
69187;BME280;56301;56.864;60.554;2023-05-09T03:21:55;99755.09;;;22.92;37.60
69187;BME280;56301;56.864;60.554;2023-05-09T03:24:17;99756.94;;;22.92;38.16
69187;BME280;56301;56.864;60.554;2023-05-09T03:26:40;99752.50;;;22.91;37.15
69187;BME280;56301;56.864;60.554;2023-05-09T03:29:02;99759.75;;;22.90;37.81
69187;BME280;56301;56.864;60.554;2023-05-09T03:31:25;99752.50;;;22.91;38.35
69187;BME280;56301;56.864;60.554;2023-05-09T03:33:47;99753.34;;;22.91;38.47
69187;BME280;56301;56.864;60.554;2023-05-09T03:36:11;99751.38;;;22.93;38.24
69187;BME280;56301;56.864;60.554;2023-05-09T03:38:36;99753.78;;;22.96;37.89
69187;BME280;56301;56.864;60.554;2023-05-09T03:40:59;99752.66;;;22.99;37.87
69187;BME280;56301;56.864;60.554;2023-05-09T03:43:22;99760.44;;;23.02;37.50
69187;BME280;56301;56.864;60.554;2023-05-09T03:45:44;99754.19;;;23.01;37.31
69187;BME280;56301;56.864;60.554;2023-05-09T03:48:08;99761.44;;;23.01;38.09
69187;BME280;56301;56.864;60.554;2023-05-09T03:50:34;99755.19;;;23.00;37.93
69187;BME280;56301;56.864;60.554;2023-05-09T03:52:57;99753.34;;;23.01;38.17
69187;BME280;56301;56.864;60.554;2023-05-09T03:55:19;99753.34;;;23.01;38.63
69187;BME280;56301;56.864;60.554;2023-05-09T03:57:42;99753.06;;;23.04;38.15
69187;BME280;56301;56.864;60.554;2023-05-09T04:00:04;99759.16;;;23.06;38.02
69187;BME280;56301;56.864;60.554;2023-05-09T04:02:36;99756.31;;;23.08;37.78
69187;BME280;56301;56.864;60.554;2023-05-09T04:04:59;99760.84;;;23.07;38.08
69187;BME280;56301;56.864;60.554;2023-05-09T04:07:22;99755.28;;;23.09;38.31
69187;BME280;56301;56.864;60.554;2023-05-09T04:09:44;99760.56;;;23.10;38.44
69187;BME280;56301;56.864;60.554;2023-05-09T04:12:07;99756.00;;;23.11;38.89
69187;BME280;56301;56.864;60.554;2023-05-09T04:14:29;99758.72;;;23.11;38.65
69187;BME280;56301;56.864;60.554;2023-05-09T04:16:52;99771.06;;;23.13;38.52
69187;BME280;56301;56.864;60.554;2023-05-09T04:19:15;99756.56;;;23.14;37.82
69187;BME280;56301;56.864;60.554;2023-05-09T04:21:38;99757.25;;;23.16;37.48
69187;BME280;56301;56.864;60.554;2023-05-09T04:24:01;99759.09;;;23.16;38.12
69187;BME280;56301;56.864;60.554;2023-05-09T04:26:30;99755.72;;;23.14;37.94
69187;BME280;56301;56.864;60.554;2023-05-09T04:28:54;99756.69;;;23.13;37.11
69187;BME280;56301;56.864;60.554;2023-05-09T04:31:16;99752.72;;;23.17;37.53
69187;BME280;56301;56.864;60.554;2023-05-09T04:33:42;99757.13;;;23.18;37.90
69187;BME280;56301;56.864;60.554;2023-05-09T04:36:06;99754.41;;;23.18;36.99
69187;BME280;56301;56.864;60.554;2023-05-09T04:38:28;99764.22;;;23.19;38.21
69187;BME280;56301;56.864;60.554;2023-05-09T04:43:14;99761.91;;;23.24;37.24
69187;BME280;56301;56.864;60.554;2023-05-09T04:45:37;99758.06;;;23.26;37.39
69187;BME280;56301;56.864;60.554;2023-05-09T04:47:59;99761.47;;;23.28;37.46
69187;BME280;56301;56.864;60.554;2023-05-09T04:50:22;99760.47;;;23.29;37.28
69187;BME280;56301;56.864;60.554;2023-05-09T04:52:45;99756.91;;;23.29;37.29
69187;BME280;56301;56.864;60.554;2023-05-09T04:55:08;99755.78;;;23.32;37.55
69187;BME280;56301;56.864;60.554;2023-05-09T04:57:34;99758.16;;;23.35;37.54
69187;BME280;56301;56.864;60.554;2023-05-09T04:59:59;99750.91;;;23.35;37.65
69187;BME280;56301;56.864;60.554;2023-05-09T05:02:21;99756.16;;;23.37;36.94
69187;BME280;56301;56.864;60.554;2023-05-09T05:04:45;99749.44;;;23.41;36.88
69187;BME280;56301;56.864;60.554;2023-05-09T05:07:08;99743.75;;;23.44;36.70
69187;BME280;56301;56.864;60.554;2023-05-09T05:09:31;99744.47;;;23.46;37.33
69187;BME280;56301;56.864;60.554;2023-05-09T05:11:54;99742.59;;;23.46;37.21
69187;BME280;56301;56.864;60.554;2023-05-09T05:14:17;99751.25;;;23.50;37.19
69187;BME280;56301;56.864;60.554;2023-05-09T05:16:40;99750.50;;;23.58;38.07
69187;BME280;56301;56.864;60.554;2023-05-09T05:19:03;99747.44;;;23.70;38.42
69187;BME280;56301;56.864;60.554;2023-05-09T05:21:30;99744.44;;;23.73;37.83
69187;BME280;56301;56.864;60.554;2023-05-09T05:23:52;99743.59;;;23.73;37.67
69187;BME280;56301;56.864;60.554;2023-05-09T05:26:15;99737.03;;;23.75;37.07
69187;BME280;56301;56.864;60.554;2023-05-09T05:28:38;99735.00;;;23.77;37.01
69187;BME280;56301;56.864;60.554;2023-05-09T05:31:01;99727.63;;;23.80;36.55
69187;BME280;56301;56.864;60.554;2023-05-09T05:33:24;99736.41;;;23.82;37.08
69187;BME280;56301;56.864;60.554;2023-05-09T05:35:47;99735.13;;;23.86;37.22
69187;BME280;56301;56.864;60.554;2023-05-09T05:38:09;99734.78;;;23.89;36.47
69187;BME280;56301;56.864;60.554;2023-05-09T05:40:32;99735.47;;;23.91;36.35
69187;BME280;56301;56.864;60.554;2023-05-09T05:42:58;99736.03;;;23.94;35.99
69187;BME280;56301;56.864;60.554;2023-05-09T05:45:21;99731.00;;;23.99;36.03
69187;BME280;56301;56.864;60.554;2023-05-09T05:47:46;99723.41;;;24.03;36.33
69187;BME280;56301;56.864;60.554;2023-05-09T05:50:09;99723.28;;;24.05;35.91
69187;BME280;56301;56.864;60.554;2023-05-09T05:52:32;99726.53;;;24.08;36.30
69187;BME280;56301;56.864;60.554;2023-05-09T05:54:56;99727.38;;;24.09;36.00
69187;BME280;56301;56.864;60.554;2023-05-09T05:57:20;99718.78;;;24.13;36.45
69187;BME280;56301;56.864;60.554;2023-05-09T05:59:43;99726.22;;;24.11;35.66
69187;BME280;56301;56.864;60.554;2023-05-09T06:02:05;99725.56;;;24.17;36.52
69187;BME280;56301;56.864;60.554;2023-05-09T06:07:13;99714.47;;;24.46;35.86
69187;BME280;56301;56.864;60.554;2023-05-09T06:09:36;99710.31;;;24.52;35.86
69187;BME280;56301;56.864;60.554;2023-05-09T06:11:58;99701.22;;;24.61;35.63
69187;BME280;56301;56.864;60.554;2023-05-09T06:14:21;99712.38;;;24.92;36.01
69187;BME280;56301;56.864;60.554;2023-05-09T06:16:44;99710.47;;;24.77;36.57
69187;BME280;56301;56.864;60.554;2023-05-09T06:19:06;99712.47;;;24.74;36.67
69187;BME280;56301;56.864;60.554;2023-05-09T06:21:29;99705.38;;;24.73;36.46
69187;BME280;56301;56.864;60.554;2023-05-09T06:23:51;99708.75;;;24.76;36.48
69187;BME280;56301;56.864;60.554;2023-05-09T06:26:14;99702.16;;;24.78;36.57
69187;BME280;56301;56.864;60.554;2023-05-09T06:28:36;99611.19;;;24.85;36.51
69187;BME280;56301;56.864;60.554;2023-05-09T06:30:59;99605.97;;;24.92;35.79
69187;BME280;56301;56.864;60.554;2023-05-09T06:33:22;99693.97;;;24.96;35.78
69187;BME280;56301;56.864;60.554;2023-05-09T06:35:44;99687.03;;;25.36;35.52
69187;BME280;56301;56.864;60.554;2023-05-09T06:38:07;99682.13;;;25.56;35.21
69187;BME280;56301;56.864;60.554;2023-05-09T06:40:29;99689.22;;;25.32;35.02
69187;BME280;56301;56.864;60.554;2023-05-09T06:42:52;99685.28;;;25.27;35.93
69187;BME280;56301;56.864;60.554;2023-05-09T06:45:15;99680.06;;;25.25;35.68
69187;BME280;56301;56.864;60.554;2023-05-09T06:47:38;99678.88;;;25.28;35.48
69187;BME280;56301;56.864;60.554;2023-05-09T06:50:00;99677.16;;;25.27;36.00
69187;BME280;56301;56.864;60.554;2023-05-09T06:52:22;99677.22;;;25.35;35.58
69187;BME280;56301;56.864;60.554;2023-05-09T06:54:45;99662.81;;;25.42;35.65
69187;BME280;56301;56.864;60.554;2023-05-09T06:57:07;99656.72;;;25.49;35.41
69187;BME280;56301;56.864;60.554;2023-05-09T06:59:30;99652.88;;;25.92;34.52
69187;BME280;56301;56.864;60.554;2023-05-09T07:01:52;99647.44;;;25.76;35.20
69187;BME280;56301;56.864;60.554;2023-05-09T07:04:15;99651.47;;;25.63;35.32
69187;BME280;56301;56.864;60.554;2023-05-09T07:06:37;99650.13;;;25.59;35.74
69187;BME280;56301;56.864;60.554;2023-05-09T07:08:59;99652.00;;;25.59;36.48
69187;BME280;56301;56.864;60.554;2023-05-09T07:11:22;99654.56;;;25.60;35.89
69187;BME280;56301;56.864;60.554;2023-05-09T07:13:44;99658.78;;;25.55;36.17
69187;BME280;56301;56.864;60.554;2023-05-09T07:16:07;99658.63;;;25.64;36.24
69187;BME280;56301;56.864;60.554;2023-05-09T07:18:29;99650.66;;;25.71;35.46
69187;BME280;56301;56.864;60.554;2023-05-09T07:20:52;99651.16;;;25.66;35.76
69187;BME280;56301;56.864;60.554;2023-05-09T07:23:14;99649.13;;;25.60;35.94
69187;BME280;56301;56.864;60.554;2023-05-09T07:25:36;99652.56;;;25.87;34.70
69187;BME280;56301;56.864;60.554;2023-05-09T07:27:59;99645.41;;;25.78;35.69
69187;BME280;56301;56.864;60.554;2023-05-09T07:30:22;99645.72;;;25.58;35.98
69187;BME280;56301;56.864;60.554;2023-05-09T07:32:44;99646.41;;;25.52;35.28
69187;BME280;56301;56.864;60.554;2023-05-09T07:35:07;99633.69;;;25.44;35.50
69187;BME280;56301;56.864;60.554;2023-05-09T07:37:29;99637.75;;;25.40;35.44
69187;BME280;56301;56.864;60.554;2023-05-09T07:39:52;99641.31;;;25.41;36.12
69187;BME280;56301;56.864;60.554;2023-05-09T07:42:14;99640.97;;;25.36;36.20
69187;BME280;56301;56.864;60.554;2023-05-09T07:44:37;99635.03;;;25.40;36.07
69187;BME280;56301;56.864;60.554;2023-05-09T07:47:00;99646.06;;;25.39;36.28
69187;BME280;56301;56.864;60.554;2023-05-09T07:49:22;99631.50;;;25.40;36.13
69187;BME280;56301;56.864;60.554;2023-05-09T07:51:45;99626.97;;;25.81;35.14
69187;BME280;56301;56.864;60.554;2023-05-09T07:54:07;99629.97;;;25.62;35.59
69187;BME280;56301;56.864;60.554;2023-05-09T07:56:30;99635.72;;;25.59;35.34
69187;BME280;56301;56.864;60.554;2023-05-09T07:58:53;99629.13;;;25.45;36.08
69187;BME280;56301;56.864;60.554;2023-05-09T08:01:16;99632.31;;;25.40;35.76
69187;BME280;56301;56.864;60.554;2023-05-09T08:03:39;99623.53;;;25.38;35.81
69187;BME280;56301;56.864;60.554;2023-05-09T08:06:02;99628.09;;;25.38;35.83
69187;BME280;56301;56.864;60.554;2023-05-09T08:08:25;99630.13;;;25.36;36.25
69187;BME280;56301;56.864;60.554;2023-05-09T08:10:48;99626.41;;;25.37;35.42
69187;BME280;56301;56.864;60.554;2023-05-09T08:13:10;99623.88;;;25.35;36.54
69187;BME280;56301;56.864;60.554;2023-05-09T08:15:32;99624.38;;;25.39;35.85
69187;BME280;56301;56.864;60.554;2023-05-09T08:17:55;99617.25;;;25.38;35.85
69187;BME280;56301;56.864;60.554;2023-05-09T08:20:18;99610.16;;;25.45;35.92
69187;BME280;56301;56.864;60.554;2023-05-09T08:22:40;99606.25;;;25.48;36.44
69187;BME280;56301;56.864;60.554;2023-05-09T08:25:03;99604.38;;;25.56;35.81
69187;BME280;56301;56.864;60.554;2023-05-09T08:27:26;99601.03;;;25.46;35.66
69187;BME280;56301;56.864;60.554;2023-05-09T08:29:48;99600.50;;;25.42;36.04
69187;BME280;56301;56.864;60.554;2023-05-09T08:32:11;99596.25;;;25.40;36.23
69187;BME280;56301;56.864;60.554;2023-05-09T08:34:34;99600.00;;;25.39;36.39
69187;BME280;56301;56.864;60.554;2023-05-09T08:36:56;99597.63;;;25.36;36.34
69187;BME280;56301;56.864;60.554;2023-05-09T08:39:19;99597.94;;;25.33;36.57
69187;BME280;56301;56.864;60.554;2023-05-09T08:41:41;99596.59;;;25.29;36.53
69187;BME280;56301;56.864;60.554;2023-05-09T08:44:04;99600.47;;;25.26;36.47
69187;BME280;56301;56.864;60.554;2023-05-09T08:46:27;99593.53;;;25.24;36.54
69187;BME280;56301;56.864;60.554;2023-05-09T08:48:51;99586.41;;;25.23;37.09
69187;BME280;56301;56.864;60.554;2023-05-09T08:51:14;99587.59;;;25.20;37.13
69187;BME280;56301;56.864;60.554;2023-05-09T08:53:37;99586.75;;;25.19;36.63
69187;BME280;56301;56.864;60.554;2023-05-09T08:56:00;99585.06;;;25.18;36.81
69187;BME280;56301;56.864;60.554;2023-05-09T08:58:22;99585.06;;;25.18;36.79
69187;BME280;56301;56.864;60.554;2023-05-09T09:00:45;99584.41;;;25.16;36.32
69187;BME280;56301;56.864;60.554;2023-05-09T09:03:08;99580.66;;;25.17;36.86
69187;BME280;56301;56.864;60.554;2023-05-09T09:05:32;99581.69;;;25.16;36.50
69187;BME280;56301;56.864;60.554;2023-05-09T09:07:57;99567.28;;;25.16;37.26
69187;BME280;56301;56.864;60.554;2023-05-09T09:10:20;99575.41;;;25.16;37.13
69187;BME280;56301;56.864;60.554;2023-05-09T09:12:43;99581.69;;;25.16;36.60
69187;BME280;56301;56.864;60.554;2023-05-09T09:15:06;99565.44;;;25.16;36.97
69187;BME280;56301;56.864;60.554;2023-05-09T09:20:13;99561.03;;;25.15;36.96
69187;BME280;56301;56.864;60.554;2023-05-09T09:22:38;99566.44;;;25.15;37.11
69187;BME280;56301;56.864;60.554;2023-05-09T09:25:02;99564.75;;;25.14;36.83
69187;BME280;56301;56.864;60.554;2023-05-09T09:27:24;99575.59;;;25.14;37.16
69187;BME280;56301;56.864;60.554;2023-05-09T09:29:47;99559.34;;;25.14;37.10
69187;BME280;56301;56.864;60.554;2023-05-09T09:32:09;99558.31;;;25.15;37.00
69187;BME280;56301;56.864;60.554;2023-05-09T09:34:32;99550.38;;;25.14;37.30
69187;BME280;56301;56.864;60.554;2023-05-09T09:36:55;99549.34;;;25.15;37.39
69187;BME280;56301;56.864;60.554;2023-05-09T09:39:17;99547.66;;;25.14;37.15
69187;BME280;56301;56.864;60.554;2023-05-09T09:41:40;99552.91;;;25.15;37.06
69187;BME280;56301;56.864;60.554;2023-05-09T09:44:10;99549.34;;;25.15;37.31
69187;BME280;56301;56.864;60.554;2023-05-09T09:46:52;99547.47;;;25.15;36.75
69187;BME280;56301;56.864;60.554;2023-05-09T09:49:16;99551.22;;;25.14;37.22
69187;BME280;56301;56.864;60.554;2023-05-09T09:51:39;99541.41;;;25.13;37.36
69187;BME280;56301;56.864;60.554;2023-05-09T09:54:02;99540.38;;;25.14;36.83
69187;BME280;56301;56.864;60.554;2023-05-09T09:56:36;99544.78;;;25.15;37.41
69187;BME280;56301;56.864;60.554;2023-05-09T09:59:07;99544.09;;;25.13;36.81
69187;BME280;56301;56.864;60.554;2023-05-09T10:01:29;99543.94;;;25.15;37.40
69187;BME280;56301;56.864;60.554;2023-05-09T10:03:52;99529.53;;;25.14;36.99
69187;BME280;56301;56.864;60.554;2023-05-09T10:06:15;99528.69;;;25.14;37.05
69187;BME280;56301;56.864;60.554;2023-05-09T10:08:38;99527.84;;;25.13;37.37
69187;BME280;56301;56.864;60.554;2023-05-09T10:11:01;99528.69;;;25.14;37.04
69187;BME280;56301;56.864;60.554;2023-05-09T10:13:24;99525.16;;;25.13;37.27
69187;BME280;56301;56.864;60.554;2023-05-09T10:15:46;99518.91;;;25.13;37.05
69187;BME280;56301;56.864;60.554;2023-05-09T10:18:09;99526.16;;;25.12;37.52
69187;BME280;56301;56.864;60.554;2023-05-09T10:20:33;99520.72;;;25.12;37.26
69187;BME280;56301;56.864;60.554;2023-05-09T10:22:56;99511.94;;;25.10;37.18
69187;BME280;56301;56.864;60.554;2023-05-09T10:25:21;99514.66;;;25.10;37.65
69187;BME280;56301;56.864;60.554;2023-05-09T10:27:44;99510.91;;;25.11;37.37
69187;BME280;56301;56.864;60.554;2023-05-09T10:30:08;99515.66;;;25.09;37.23
69187;BME280;56301;56.864;60.554;2023-05-09T10:32:32;99513.09;;;25.08;37.62
69187;BME280;56301;56.864;60.554;2023-05-09T10:35:00;99512.25;;;25.07;37.42
69187;BME280;56301;56.864;60.554;2023-05-09T10:37:24;99505.13;;;25.06;37.41
69187;BME280;56301;56.864;60.554;2023-05-09T10:39:47;99494.31;;;25.06;37.51
69187;BME280;56301;56.864;60.554;2023-05-09T10:42:09;99500.72;;;25.05;37.33
69187;BME280;56301;56.864;60.554;2023-05-09T10:44:33;99494.66;;;25.03;37.74
69187;BME280;56301;56.864;60.554;2023-05-09T10:46:56;99495.66;;;25.02;37.18
69187;BME280;56301;56.864;60.554;2023-05-09T10:49:18;99497.50;;;25.02;37.36
69187;BME280;56301;56.864;60.554;2023-05-09T10:51:41;99491.44;;;25.00;37.31
69187;BME280;56301;56.864;60.554;2023-05-09T10:54:11;99494.47;;;24.96;37.90
69187;BME280;56301;56.864;60.554;2023-05-09T10:56:34;99490.22;;;24.94;37.80
69187;BME280;56301;56.864;60.554;2023-05-09T10:58:57;99491.56;;;24.90;37.50
69187;BME280;56301;56.864;60.554;2023-05-09T11:01:36;99483.63;;;24.80;37.82
69187;BME280;56301;56.864;60.554;2023-05-09T11:03:59;99493.09;;;24.84;37.60
69187;BME280;56301;56.864;60.554;2023-05-09T11:11:56;99484.09;;;24.76;37.76
69187;BME280;56301;56.864;60.554;2023-05-09T11:17:14;99486.47;;;24.70;38.34
69187;BME280;56301;56.864;60.554;2023-05-09T11:22:27;99487.66;;;24.68;38.40
69187;BME280;56301;56.864;60.554;2023-05-09T11:24:51;99484.41;;;24.64;37.48
69187;BME280;56301;56.864;60.554;2023-05-09T11:27:21;99481.06;;;24.62;37.69
69187;BME280;56301;56.864;60.554;2023-05-09T11:29:53;99472.25;;;24.60;38.31
69187;BME280;56301;56.864;60.554;2023-05-09T11:32:16;99471.53;;;24.58;37.93
69187;BME280;56301;56.864;60.554;2023-05-09T11:34:41;99465.47;;;24.56;37.99
69187;BME280;56301;56.864;60.554;2023-05-09T11:37:11;99475.59;;;24.54;38.50
69187;BME280;56301;56.864;60.554;2023-05-09T11:39:33;99474.94;;;24.52;37.51
69187;BME280;56301;56.864;60.554;2023-05-09T11:41:57;99471.53;;;24.50;38.48
69187;BME280;56301;56.864;60.554;2023-05-09T11:44:21;99466.31;;;24.48;37.33
69187;BME280;56301;56.864;60.554;2023-05-09T11:46:44;99468.31;;;24.46;37.87
69187;BME280;56301;56.864;60.554;2023-05-09T11:49:07;99463.09;;;24.45;38.01
69187;BME280;56301;56.864;60.554;2023-05-09T11:51:29;99466.81;;;24.44;37.95
69187;BME280;56301;56.864;60.554;2023-05-09T11:53:52;99467.97;;;24.41;38.11
69187;BME280;56301;56.864;60.554;2023-05-09T11:56:15;99461.72;;;24.41;38.59
69187;BME280;56301;56.864;60.554;2023-05-09T11:58:38;99462.00;;;24.38;37.71
69187;BME280;56301;56.864;60.554;2023-05-09T12:01:00;99454.03;;;24.36;37.70
69187;BME280;56301;56.864;60.554;2023-05-09T12:03:23;99456.94;;;24.35;37.88
69187;BME280;56301;56.864;60.554;2023-05-09T12:05:46;99449.84;;;24.34;37.41
69187;BME280;56301;56.864;60.554;2023-05-09T12:08:09;99443.72;;;24.32;37.82
69187;BME280;56301;56.864;60.554;2023-05-09T12:10:31;99443.72;;;24.32;38.27
69187;BME280;56301;56.864;60.554;2023-05-09T12:12:57;99441.34;;;24.29;38.05
69187;BME280;56301;56.864;60.554;2023-05-09T12:15:20;99439.66;;;24.27;37.67
69187;BME280;56301;56.864;60.554;2023-05-09T12:17:43;99440.50;;;24.28;37.79
69187;BME280;56301;56.864;60.554;2023-05-09T12:20:06;99437.97;;;24.26;37.71
69187;BME280;56301;56.864;60.554;2023-05-09T12:22:29;99440.00;;;24.24;37.66
69187;BME280;56301;56.864;60.554;2023-05-09T12:24:51;99435.59;;;24.23;37.94
69187;BME280;56301;56.864;60.554;2023-05-09T12:27:13;99434.91;;;24.21;37.76
69187;BME280;56301;56.864;60.554;2023-05-09T12:29:36;99430.50;;;24.20;37.33
69187;BME280;56301;56.864;60.554;2023-05-09T12:31:59;99433.22;;;24.20;37.26
69187;BME280;56301;56.864;60.554;2023-05-09T12:34:21;99428.81;;;24.19;37.40
69187;BME280;56301;56.864;60.554;2023-05-09T12:36:44;99433.53;;;24.17;38.02
69187;BME280;56301;56.864;60.554;2023-05-09T12:39:07;99428.13;;;24.17;37.78
69187;BME280;56301;56.864;60.554;2023-05-09T12:41:30;99422.72;;;24.17;37.81
69187;BME280;56301;56.864;60.554;2023-05-09T12:43:52;99421.03;;;24.16;37.53
69187;BME280;56301;56.864;60.554;2023-05-09T12:46:18;99424.75;;;24.15;37.60
69187;BME280;56301;56.864;60.554;2023-05-09T12:48:42;99422.19;;;24.14;37.85
69187;BME280;56301;56.864;60.554;2023-05-09T12:51:05;99424.06;;;24.13;37.88
69187;BME280;56301;56.864;60.554;2023-05-09T12:53:28;99425.94;;;24.13;38.33